createdAt,value
2023-03-14T00:03:12.289Z,2.25
2023-03-14T00:10:47.806Z,1.10
2023-03-14T00:18:22.130Z,2.88
2023-03-14T00:26:01.538Z,0.80
2023-03-14T00:33:35.873Z,1.17
2023-03-14T00:49:04.234Z,3.05
2023-03-14T00:56:39.944Z,1.40
2023-03-14T01:04:14.080Z,1.10
2023-03-14T01:19:42.842Z,0.85
2023-03-14T01:27:18.211Z,2.08
2023-03-14T01:34:52.325Z,1.67
2023-03-14T01:42:27.967Z,2.27
2023-03-14T01:50:06.843Z,1.30
2023-03-14T01:57:46.834Z,2.28
2023-03-14T02:05:23.914Z,1.70
2023-03-14T02:13:03.752Z,1.85
2023-03-14T02:20:44.760Z,0.98
2023-03-14T02:28:21.150Z,1.20
2023-03-14T02:35:58.631Z,1.27
2023-03-14T02:43:34.273Z,1.20
2023-03-14T02:51:10.258Z,0.70
2023-03-14T02:58:45.661Z,2.00
2023-03-14T03:06:19.631Z,0.95
2023-03-14T03:13:55.104Z,0.50
2023-03-14T03:21:29.246Z,0.85
2023-03-14T03:29:05.202Z,2.53
2023-03-14T03:36:39.241Z,1.15
2023-03-14T03:44:15.156Z,0.77
2023-03-14T03:51:49.061Z,0.55
2023-03-14T03:59:24.423Z,1.85
2023-03-14T04:06:58.376Z,0.57
2023-03-14T04:14:33.707Z,0.82
2023-03-14T04:22:07.655Z,1.30
2023-03-14T04:29:43.208Z,1.55
2023-03-14T04:37:17.223Z,1.70
2023-03-14T04:44:52.787Z,0.63
2023-03-14T04:52:26.896Z,1.65
2023-03-14T05:00:02.569Z,0.47
2023-03-14T05:07:36.482Z,1.58
2023-03-14T05:15:12.567Z,2.25
2023-03-14T05:22:46.695Z,1.15
2023-03-14T05:30:22.682Z,0.53
2023-03-14T05:37:56.691Z,1.90
2023-03-14T05:45:33.878Z,0.93
2023-03-14T05:53:08.599Z,3.05
2023-03-14T06:00:44.227Z,1.13
2023-03-14T06:08:18.221Z,1.83
2023-03-14T06:15:53.555Z,1.40
2023-03-14T06:23:27.617Z,1.58
2023-03-14T06:31:03.027Z,1.30
2023-03-14T06:38:36.742Z,1.75
2023-03-14T06:46:12.280Z,0.60
2023-03-14T06:53:46.257Z,1.30
2023-03-14T07:01:25.556Z,1.55
2023-03-14T07:09:00.142Z,1.83
2023-03-14T07:16:35.932Z,1.95
2023-03-14T07:24:10.264Z,3.53
2023-03-14T07:31:45.867Z,1.77
2023-03-14T07:39:20.055Z,2.67
2023-03-14T07:46:55.794Z,1.63
2023-03-14T07:54:30.178Z,5.28
2023-03-14T08:02:06.867Z,2.57
2023-03-14T08:09:40.851Z,3.63
2023-03-14T08:17:16.188Z,3.65
2023-03-14T08:24:50.146Z,2.20
2023-03-14T08:32:25.826Z,5.57
2023-03-14T08:39:59.790Z,3.67
2023-03-14T08:47:35.442Z,2.10
2023-03-14T08:55:10.925Z,4.00
2023-03-14T09:10:39.600Z,2.10
2023-03-14T09:18:15.452Z,2.10
2023-03-14T09:33:42.507Z,3.78
2023-03-14T09:41:19.941Z,2.85
2023-03-14T09:48:55.650Z,1.27
2023-03-14T09:56:34.312Z,3.55
2023-03-14T10:12:11.350Z,5.60
2023-03-14T10:19:57.345Z,1.33
2023-03-14T10:27:33.737Z,3.58
2023-03-14T10:43:17.622Z,2.08
2023-03-14T10:50:57.913Z,1.67
2023-03-14T10:58:35.172Z,4.50
2023-03-14T11:06:16.874Z,0.90
2023-03-14T11:14:00.317Z,3.10
2023-03-14T11:21:39.552Z,3.70
2023-03-14T11:29:22.318Z,6.57
2023-03-14T11:37:02.460Z,2.83
2023-03-14T11:44:40.619Z,2.22
2023-03-14T11:52:22.542Z,1.10
2023-03-14T12:00:04.839Z,4.25
2023-03-14T12:07:52.667Z,0.68
2023-03-14T12:15:27.120Z,3.00
2023-03-14T12:23:07.632Z,2.27
2023-03-14T12:30:43.177Z,0.82
2023-03-14T12:38:29.222Z,0.77
2023-03-14T12:46:11.513Z,0.38
2023-03-14T12:54:18.202Z,1.27
2023-03-14T13:01:57.300Z,0.35
2023-03-14T13:09:55.664Z,1.08
2023-03-14T13:17:36.590Z,1.05
2023-03-14T13:25:13.624Z,1.80
2023-03-14T13:32:49.670Z,1.30
2023-03-14T13:40:31.574Z,0.60
2023-03-14T13:48:06.090Z,0.90
2023-03-14T13:55:41.724Z,0.83
2023-03-14T14:03:16.015Z,0.68
2023-03-14T14:10:52.036Z,0.30
2023-03-14T14:18:29.907Z,0.50
2023-03-14T14:26:09.250Z,2.03
2023-03-14T14:33:45.602Z,0.70
2023-03-14T14:41:21.730Z,0.70
2023-03-14T14:48:58.479Z,0.45
2023-03-14T14:56:38.360Z,0.28
2023-03-14T15:04:14.665Z,0.70
2023-03-14T15:11:52.080Z,2.92
2023-03-14T15:19:29.888Z,3.63
2023-03-14T15:27:05.824Z,0.10
2023-03-14T15:34:39.874Z,0.30
2023-03-14T15:42:15.113Z,1.10
2023-03-14T15:49:49.123Z,1.15
2023-03-14T15:57:24.700Z,3.20
2023-03-14T16:04:58.928Z,0.40
2023-03-14T16:28:20.045Z,0.10
2023-03-14T16:35:57.841Z,0.20
2023-03-14T16:51:25.737Z,0.65
2023-03-14T16:59:01.071Z,0.73
2023-03-14T17:06:35.165Z,1.20
2023-03-14T17:14:10.569Z,2.10
2023-03-14T17:21:44.525Z,1.48
2023-03-14T17:37:11.017Z,3.85
2023-03-14T17:44:47.830Z,3.65
2023-03-14T17:52:21.820Z,6.75
2023-03-14T17:59:57.150Z,8.70
2023-03-14T18:07:31.357Z,5.63
2023-03-14T18:15:07.662Z,5.93
2023-03-14T18:22:42.377Z,4.53
2023-03-14T18:38:11.492Z,3.83
2023-03-14T18:45:46.829Z,7.73
2023-03-14T18:53:22.077Z,5.85
2023-03-14T19:24:35.237Z,8.93
2023-03-14T19:32:12.188Z,6.18
2023-03-14T19:39:47.129Z,9.43
2023-03-14T19:47:22.474Z,8.90
2023-03-14T19:54:57.528Z,11.07
2023-03-14T20:02:33.077Z,14.00
2023-03-14T20:10:08.955Z,5.50
2023-03-14T20:17:44.249Z,7.97
2023-03-14T20:25:19.796Z,17.25
2023-03-14T20:32:55.254Z,4.38
2023-03-14T20:40:29.681Z,6.97
2023-03-14T20:55:39.282Z,10.85
2023-03-14T21:03:15.229Z,6.35
2023-03-14T21:10:50.351Z,5.78
2023-03-14T21:18:26.033Z,8.07
2023-03-14T21:25:59.986Z,6.25
2023-03-14T21:33:35.727Z,10.23
2023-03-14T21:49:02.755Z,6.10
2023-03-14T21:56:36.834Z,6.03
2023-03-14T22:04:12.021Z,7.32
2023-03-14T22:11:46.156Z,3.42
2023-03-14T22:19:22.612Z,5.53
2023-03-14T22:26:56.845Z,5.20
2023-03-14T22:34:32.335Z,4.38
2023-03-14T22:42:06.783Z,4.70
2023-03-14T22:49:42.100Z,4.10
2023-03-14T22:57:16.200Z,8.02
2023-03-14T23:04:51.868Z,8.80
2023-03-14T23:12:25.930Z,4.63
2023-03-14T23:20:01.564Z,5.88
2023-03-14T23:27:35.584Z,4.03
2023-03-14T23:35:12.709Z,4.72
2023-03-14T23:42:46.783Z,6.53
2023-03-14T23:50:22.309Z,4.82
2023-03-14T23:57:56.260Z,6.22
